createdAt,value
2019-03-22T00:00:06.458Z,0
2019-03-22T00:01:06.468Z,0
2019-03-22T00:02:05.774Z,0
2019-03-22T00:03:06.264Z,0
2019-03-22T00:04:06.272Z,0
2019-03-22T00:05:06.555Z,0
2019-03-22T00:06:06.047Z,0
2019-03-22T00:07:06.588Z,0
2019-03-22T00:08:06.349Z,0
2019-03-22T00:09:05.857Z,0
2019-03-22T00:10:06.645Z,0
2019-03-22T00:11:06.507Z,0
2019-03-22T00:12:08.961Z,0
2019-03-22T00:13:06.177Z,0
2019-03-22T00:14:06.197Z,0
2019-03-22T00:15:06.220Z,0
2019-03-22T00:16:06.242Z,0
2019-03-22T00:17:06.331Z,0
2019-03-22T00:18:06.542Z,0
2019-03-22T00:19:06.563Z,0
2019-03-22T00:20:06.070Z,0
2019-03-22T00:21:06.348Z,0
2019-03-22T00:22:06.641Z,0
2019-03-22T00:23:06.375Z,0
2019-03-22T00:24:06.400Z,0
2019-03-22T00:25:06.683Z,0
2019-03-22T00:26:06.710Z,0
2019-03-22T00:27:18.262Z,0
2019-03-22T00:28:06.735Z,0
2019-03-22T00:29:06.491Z,0
2019-03-22T00:30:06.505Z,0
2019-03-22T00:31:06.543Z,0
2019-03-22T00:32:06.816Z,0
2019-03-22T00:33:07.100Z,0
2019-03-22T00:34:06.854Z,0
2019-03-22T00:35:06.606Z,0
2019-03-22T00:36:06.619Z,0
2019-03-22T00:37:06.909Z,0
2019-03-22T00:38:06.398Z,0
2019-03-22T00:39:06.969Z,0
2019-03-22T00:40:06.697Z,0
2019-03-22T00:41:06.786Z,0
2019-03-22T00:42:07.020Z,0
2019-03-22T00:43:07.018Z,0
2019-03-22T00:44:07.035Z,0
2019-03-22T00:45:07.242Z,0
2019-03-22T00:46:07.076Z,0
2019-03-22T00:47:07.097Z,0
2019-03-22T00:48:07.423Z,0
2019-03-22T00:49:07.392Z,0
2019-03-22T00:50:07.764Z,0
2019-03-22T00:51:06.910Z,0
2019-03-22T00:52:07.450Z,0
2019-03-22T00:53:06.949Z,0
2019-03-22T00:54:07.229Z,0
2019-03-22T00:55:07.366Z,0
2019-03-22T00:56:06.749Z,0
2019-03-22T00:57:07.029Z,0
2019-03-22T00:58:07.594Z,0
2019-03-22T00:59:07.062Z,0
2019-03-22T01:00:07.281Z,0
2019-03-22T01:01:07.104Z,0
2019-03-22T01:02:07.138Z,0
2019-03-22T01:03:07.142Z,0
2019-03-22T01:04:07.683Z,0
2019-03-22T01:05:07.180Z,0
2019-03-22T01:06:07.505Z,0
2019-03-22T01:07:06.968Z,0
2019-03-22T01:08:07.510Z,0
2019-03-22T01:09:07.518Z,0
2019-03-22T01:10:07.548Z,0
2019-03-22T01:11:07.032Z,0
2019-03-22T01:12:07.585Z,0
2019-03-22T01:13:07.855Z,0
2019-03-22T01:14:07.615Z,0
2019-03-22T01:15:07.370Z,0
2019-03-22T01:16:07.408Z,0
2019-03-22T01:17:07.167Z,0
2019-03-22T01:18:07.953Z,0
2019-03-22T01:19:07.445Z,0
2019-03-22T01:20:07.469Z,0
2019-03-22T01:21:08.016Z,0
2019-03-22T01:22:07.508Z,0
2019-03-22T01:23:07.780Z,0
2019-03-22T01:24:09.288Z,0
2019-03-22T01:25:07.569Z,0
2019-03-22T01:26:07.837Z,0
2019-03-22T01:27:07.603Z,0
2019-03-22T01:28:07.355Z,0
2019-03-22T01:29:08.174Z,0
2019-03-22T01:30:08.186Z,0
2019-03-22T01:31:08.202Z,0
2019-03-22T01:32:08.223Z,0
2019-03-22T01:33:07.987Z,0
2019-03-22T01:34:08.005Z,0
2019-03-22T01:35:08.270Z,0
2019-03-22T01:36:08.297Z,0
2019-03-22T01:37:08.331Z,0
2019-03-22T01:38:07.807Z,0
2019-03-22T01:39:07.563Z,0
2019-03-22T01:40:08.636Z,0
2019-03-22T01:41:08.120Z,0
2019-03-22T01:42:07.901Z,0
2019-03-22T01:43:08.421Z,0
2019-03-22T01:44:08.182Z,0
2019-03-22T01:45:08.458Z,0
2019-03-22T01:46:07.701Z,0
2019-03-22T01:47:07.728Z,0
2019-03-22T01:48:08.580Z,0
2019-03-22T01:49:08.278Z,0
2019-03-22T01:50:08.293Z,0
2019-03-22T01:51:08.059Z,0
2019-03-22T01:52:08.612Z,0
2019-03-22T01:53:08.353Z,0
2019-03-22T01:54:08.370Z,0
2019-03-22T01:55:07.862Z,0
2019-03-22T01:56:08.404Z,0
2019-03-22T01:57:08.686Z,0
2019-03-22T01:58:08.184Z,0
2019-03-22T01:59:08.475Z,0
2019-03-22T02:00:08.486Z,0
2019-03-22T02:01:08.768Z,0
2019-03-22T02:02:08.265Z,0
2019-03-22T02:03:08.808Z,0
2019-03-22T02:04:08.035Z,0
2019-03-22T02:05:08.844Z,0
2019-03-22T02:06:08.619Z,0
2019-03-22T02:07:08.892Z,0
2019-03-22T02:08:08.386Z,0
2019-03-22T02:09:08.659Z,0
2019-03-22T02:10:08.403Z,0
2019-03-22T02:11:08.451Z,0
2019-03-22T02:12:08.707Z,0
2019-03-22T02:13:08.763Z,0
2019-03-22T02:14:08.482Z,0
2019-03-22T02:15:09.298Z,0
2019-03-22T02:16:08.793Z,0
2019-03-22T02:17:08.294Z,0
2019-03-22T02:18:08.819Z,0
2019-03-22T02:19:08.576Z,0
2019-03-22T02:20:08.856Z,0
2019-03-22T02:21:08.607Z,0
2019-03-22T02:22:08.639Z,0
2019-03-22T02:23:08.939Z,0
2019-03-22T02:24:08.670Z,0
2019-03-22T02:25:08.956Z,0
2019-03-22T02:26:08.984Z,0
2019-03-22T02:27:08.726Z,0
2019-03-22T02:28:13.926Z,0
2019-03-22T02:29:08.759Z,0
2019-03-22T02:30:09.091Z,0
2019-03-22T02:31:09.356Z,0
2019-03-22T02:32:09.092Z,0
2019-03-22T02:33:09.375Z,0
2019-03-22T02:34:09.177Z,0
2019-03-22T02:35:09.144Z,0
2019-03-22T02:36:09.014Z,0
2019-03-22T02:37:09.193Z,0
2019-03-22T02:38:09.251Z,0
2019-03-22T02:39:09.645Z,0
2019-03-22T02:40:09.727Z,0
2019-03-22T02:41:09.015Z,0
2019-03-22T02:42:09.587Z,0
2019-03-22T02:43:09.608Z,0
2019-03-22T02:44:09.354Z,0
2019-03-22T02:45:09.710Z,0
2019-03-22T02:46:09.619Z,0
2019-03-22T02:47:09.121Z,0
2019-03-22T02:48:09.404Z,0
2019-03-22T02:49:09.430Z,0
2019-03-22T02:50:25.015Z,0
2019-03-22T02:51:09.201Z,0
2019-03-22T02:52:09.477Z,0
2019-03-22T02:53:09.544Z,0
2019-03-22T02:54:09.518Z,0
2019-03-22T02:55:10.125Z,0
2019-03-22T02:56:10.159Z,0
2019-03-22T02:57:10.089Z,0
2019-03-22T02:58:24.367Z,0
2019-03-22T02:59:09.614Z,0
2019-03-22T03:00:09.428Z,0
2019-03-22T03:01:09.950Z,0
2019-03-22T03:02:09.684Z,0
2019-03-22T03:03:09.146Z,0
2019-03-22T03:04:09.713Z,0
2019-03-22T03:05:09.435Z,0
2019-03-22T03:06:09.497Z,0
2019-03-22T03:07:09.756Z,0
2019-03-22T03:08:09.237Z,0
2019-03-22T03:09:09.780Z,0
2019-03-22T03:10:09.560Z,0
2019-03-22T03:11:10.080Z,0
2019-03-22T03:12:10.108Z,0
2019-03-22T03:13:10.126Z,0
2019-03-22T03:14:10.053Z,0
2019-03-22T03:15:09.921Z,0
2019-03-22T03:16:09.913Z,0
2019-03-22T03:17:09.927Z,0
2019-03-22T03:18:10.232Z,0
2019-03-22T03:19:10.236Z,0
2019-03-22T03:20:09.736Z,0
2019-03-22T03:21:09.524Z,0
2019-03-22T03:22:10.309Z,0
2019-03-22T03:23:10.319Z,0
2019-03-22T03:24:10.076Z,0
2019-03-22T03:25:10.076Z,0
2019-03-22T03:26:10.141Z,0
2019-03-22T03:27:10.420Z,0
2019-03-22T03:28:09.921Z,0
2019-03-22T03:29:10.159Z,0
2019-03-22T03:30:10.441Z,0
2019-03-22T03:31:10.234Z,0
2019-03-22T03:32:10.550Z,0
2019-03-22T03:33:10.039Z,0
2019-03-22T03:34:10.600Z,0
2019-03-22T03:35:10.003Z,0
2019-03-22T03:36:10.033Z,0
2019-03-22T03:37:10.327Z,0
2019-03-22T03:38:10.851Z,0
2019-03-22T03:39:10.092Z,0
2019-03-22T03:40:10.372Z,0
2019-03-22T03:41:10.128Z,0
2019-03-22T03:42:09.916Z,0
2019-03-22T03:43:10.182Z,0
2019-03-22T03:44:10.709Z,0
2019-03-22T03:45:10.187Z,0
2019-03-22T03:46:10.213Z,0
2019-03-22T03:47:12.974Z,0
2019-03-22T03:48:10.761Z,0
2019-03-22T03:49:10.870Z,0
2019-03-22T03:50:10.541Z,0
2019-03-22T03:51:10.822Z,0
2019-03-22T03:52:10.046Z,0
2019-03-22T03:53:10.604Z,0
2019-03-22T03:54:10.647Z,0
2019-03-22T03:55:10.921Z,0
2019-03-22T03:56:11.177Z,0
2019-03-22T03:57:10.715Z,0
2019-03-22T03:58:10.719Z,0
2019-03-22T03:59:10.518Z,0
2019-03-22T04:00:10.462Z,0
2019-03-22T04:01:10.480Z,0
2019-03-22T04:02:10.780Z,0
2019-03-22T04:03:11.152Z,0
2019-03-22T04:04:10.789Z,0
2019-03-22T04:05:14.012Z,0
2019-03-22T04:06:10.565Z,0
2019-03-22T04:07:10.621Z,0
2019-03-22T04:08:10.704Z,0
2019-03-22T04:09:10.906Z,0
2019-03-22T04:10:10.933Z,0
2019-03-22T04:11:11.207Z,0
2019-03-22T04:12:10.690Z,0
2019-03-22T04:13:10.979Z,0
2019-03-22T04:14:10.814Z,0
2019-03-22T04:15:10.747Z,0
2019-03-22T04:16:10.801Z,0
2019-03-22T04:17:10.529Z,0
2019-03-22T04:18:11.339Z,0
2019-03-22T04:19:11.070Z,0
2019-03-22T04:20:11.637Z,0
2019-03-22T04:21:10.849Z,0
2019-03-22T04:22:10.884Z,0
2019-03-22T04:23:10.931Z,0
2019-03-22T04:24:11.192Z,0
2019-03-22T04:25:11.579Z,0
2019-03-22T04:26:11.474Z,0
2019-03-22T04:27:11.223Z,0
2019-03-22T04:28:10.994Z,0
2019-03-22T04:29:17.620Z,0
2019-03-22T04:30:11.280Z,0
2019-03-22T04:31:11.035Z,0
2019-03-22T04:32:11.048Z,0
2019-03-22T04:33:13.602Z,0
2019-03-22T04:34:11.375Z,0
2019-03-22T04:35:10.930Z,0
2019-03-22T04:36:10.859Z,0
2019-03-22T04:37:10.876Z,0
2019-03-22T04:38:11.699Z,0
2019-03-22T04:39:11.205Z,0
2019-03-22T04:40:11.461Z,0
2019-03-22T04:41:11.477Z,0
2019-03-22T04:42:12.021Z,0
2019-03-22T04:43:11.250Z,0
2019-03-22T04:44:11.534Z,0
2019-03-22T04:45:11.286Z,0
2019-03-22T04:46:11.036Z,0
2019-03-22T04:47:11.581Z,0
2019-03-22T04:48:11.606Z,0
2019-03-22T04:49:11.438Z,0
2019-03-22T04:50:11.635Z,0
2019-03-22T04:51:11.929Z,0
2019-03-22T04:52:11.668Z,0
2019-03-22T04:53:11.952Z,0
2019-03-22T04:54:11.726Z,0
2019-03-22T04:55:11.733Z,0
2019-03-22T04:56:12.007Z,0
2019-03-22T04:57:12.033Z,0
2019-03-22T04:58:11.520Z,0
2019-03-22T04:59:23.367Z,0
2019-03-22T05:00:12.098Z,0
2019-03-22T05:01:11.839Z,0
2019-03-22T05:02:11.597Z,0
2019-03-22T05:03:11.880Z,0
2019-03-22T05:04:12.432Z,0
2019-03-22T05:05:12.183Z,0
2019-03-22T05:06:12.219Z,0
2019-03-22T05:07:11.689Z,0
2019-03-22T05:08:11.453Z,0
2019-03-22T05:09:11.728Z,0
2019-03-22T05:10:11.754Z,0
2019-03-22T05:11:12.029Z,0
2019-03-22T05:12:14.132Z,0
2019-03-22T05:13:11.798Z,0
2019-03-22T05:14:12.079Z,0
2019-03-22T05:15:11.842Z,0
2019-03-22T05:16:12.112Z,0
2019-03-22T05:17:12.139Z,0
2019-03-22T05:18:12.685Z,0
2019-03-22T05:19:12.435Z,0
2019-03-22T05:20:12.190Z,0
2019-03-22T05:21:12.205Z,0
2019-03-22T05:22:11.962Z,0
2019-03-22T05:23:12.510Z,0
2019-03-22T05:24:12.264Z,0
2019-03-22T05:25:12.560Z,0
2019-03-22T05:26:12.030Z,0
2019-03-22T05:27:11.801Z,0
2019-03-22T05:28:12.599Z,0
2019-03-22T05:29:12.629Z,0
2019-03-22T05:30:12.650Z,0
2019-03-22T05:31:12.668Z,0
2019-03-22T05:32:12.152Z,0
2019-03-22T05:33:12.436Z,0
2019-03-22T05:34:12.712Z,0
2019-03-22T05:35:14.502Z,0
2019-03-22T05:36:12.754Z,0
2019-03-22T05:37:12.244Z,0
2019-03-22T05:38:12.266Z,0
2019-03-22T05:39:12.012Z,5
2019-03-22T05:40:12.298Z,5
2019-03-22T05:41:13.823Z,5
2019-03-22T05:42:12.865Z,5
2019-03-22T05:43:12.883Z,5
2019-03-22T05:44:13.196Z,5
2019-03-22T05:45:12.376Z,5
2019-03-22T05:46:13.202Z,5
2019-03-22T05:47:12.687Z,5
2019-03-22T05:48:12.705Z,5
2019-03-22T05:49:12.716Z,5
2019-03-22T05:50:12.749Z,5
2019-03-22T05:51:13.028Z,5
2019-03-22T05:52:12.570Z,5
2019-03-22T05:53:12.267Z,10
2019-03-22T05:54:13.086Z,10
2019-03-22T05:55:12.312Z,10
2019-03-22T05:56:12.591Z,10
2019-03-22T05:57:22.623Z,10
2019-03-22T05:58:12.884Z,10
2019-03-22T05:59:12.905Z,10
2019-03-22T06:00:12.400Z,10
2019-03-22T06:01:13.211Z,10
2019-03-22T06:02:13.249Z,10
2019-03-22T06:03:12.720Z,10
2019-03-22T06:04:12.996Z,10
2019-03-22T06:05:13.285Z,10
2019-03-22T06:06:12.797Z,10
2019-03-22T06:07:13.318Z,10
2019-03-22T06:08:13.083Z,10
2019-03-22T06:09:12.572Z,10
2019-03-22T06:10:13.114Z,15
2019-03-22T06:11:13.126Z,15
2019-03-22T06:12:13.685Z,15
2019-03-22T06:13:13.165Z,15
2019-03-22T06:14:13.454Z,15
2019-03-22T06:15:13.201Z,15
2019-03-22T06:16:12.697Z,15
2019-03-22T06:17:13.608Z,15
2019-03-22T06:18:13.527Z,20
2019-03-22T06:19:13.279Z,20
2019-03-22T06:20:13.050Z,20
2019-03-22T06:21:13.318Z,20
2019-03-22T06:22:13.596Z,20
2019-03-22T06:23:13.351Z,20
2019-03-22T06:24:13.123Z,20
2019-03-22T06:25:13.693Z,20
2019-03-22T06:26:13.152Z,20
2019-03-22T06:27:13.432Z,25
2019-03-22T06:28:13.434Z,25
2019-03-22T06:29:13.761Z,25
2019-03-22T06:30:13.224Z,25
2019-03-22T06:31:13.505Z,25
2019-03-22T06:32:13.514Z,25
2019-03-22T06:33:14.058Z,25
2019-03-22T06:34:13.291Z,25
2019-03-22T06:35:13.587Z,25
2019-03-22T06:36:14.115Z,25
2019-03-22T06:37:13.620Z,25
2019-03-22T06:38:13.909Z,25
2019-03-22T06:39:13.692Z,25
2019-03-22T06:40:14.192Z,25
2019-03-22T06:41:13.695Z,30
2019-03-22T06:42:13.494Z,30
2019-03-22T06:43:13.725Z,30
2019-03-22T06:44:13.474Z,25
2019-03-22T06:45:13.756Z,25
2019-03-22T06:46:14.069Z,25
2019-03-22T06:47:15.489Z,25
2019-03-22T06:48:13.553Z,25
2019-03-22T06:49:13.568Z,30
2019-03-22T06:50:14.121Z,30
2019-03-22T06:51:14.134Z,30
2019-03-22T06:52:14.146Z,30
2019-03-22T06:53:14.195Z,30
2019-03-22T06:54:13.928Z,35
2019-03-22T06:55:14.215Z,35
2019-03-22T06:56:13.965Z,35
2019-03-22T06:57:13.978Z,35
2019-03-22T06:58:13.736Z,35
2019-03-22T06:59:14.022Z,35
2019-03-22T07:00:16.196Z,35
2019-03-22T07:01:14.114Z,35
2019-03-22T07:02:13.807Z,35
2019-03-22T07:03:14.347Z,30
2019-03-22T07:04:14.110Z,30
2019-03-22T07:05:16.129Z,30
2019-03-22T07:06:13.885Z,35
2019-03-22T07:07:14.423Z,35
2019-03-22T07:08:13.672Z,35
2019-03-22T07:09:14.213Z,35
2019-03-22T07:10:14.492Z,40
2019-03-22T07:11:14.076Z,40
2019-03-22T07:12:14.591Z,35
2019-03-22T07:13:14.023Z,40
2019-03-22T07:14:13.775Z,35
2019-03-22T07:15:14.320Z,35
2019-03-22T07:16:14.338Z,35
2019-03-22T07:17:14.622Z,40
2019-03-22T07:18:13.899Z,35
2019-03-22T07:19:14.129Z,35
2019-03-22T07:20:14.498Z,40
2019-03-22T07:21:14.685Z,40
2019-03-22T07:22:14.456Z,40
2019-03-22T07:23:14.732Z,40
2019-03-22T07:24:14.489Z,40
2019-03-22T07:25:14.251Z,40
2019-03-22T07:26:14.262Z,40
2019-03-22T07:27:14.539Z,40
2019-03-22T07:28:14.564Z,40
2019-03-22T07:29:14.615Z,40
2019-03-22T07:30:27.073Z,40
2019-03-22T07:31:14.621Z,40
2019-03-22T07:32:14.906Z,35
2019-03-22T07:33:14.393Z,40
2019-03-22T07:34:14.417Z,40
2019-03-22T07:35:14.429Z,40
2019-03-22T07:36:14.451Z,40
2019-03-22T07:37:15.254Z,40
2019-03-22T07:38:14.489Z,40
2019-03-22T07:39:14.765Z,40
2019-03-22T07:40:15.318Z,40
2019-03-22T07:41:14.556Z,45
2019-03-22T07:42:14.566Z,45
2019-03-22T07:43:15.106Z,45
2019-03-22T07:44:14.606Z,50
2019-03-22T07:45:14.895Z,50
2019-03-22T07:46:14.908Z,50
2019-03-22T07:47:15.178Z,50
2019-03-22T07:48:14.424Z,50
2019-03-22T07:49:15.480Z,50
2019-03-22T07:50:14.447Z,50
2019-03-22T07:51:14.999Z,50
2019-03-22T07:52:15.010Z,50
2019-03-22T07:53:15.033Z,50
2019-03-22T07:54:15.060Z,50
2019-03-22T07:55:15.127Z,50
2019-03-22T07:56:14.564Z,50
2019-03-22T07:57:15.372Z,50
2019-03-22T07:58:15.134Z,50
2019-03-22T07:59:17.181Z,45
2019-03-22T08:00:15.432Z,45
2019-03-22T08:01:15.439Z,45
2019-03-22T08:02:14.946Z,45
2019-03-22T08:03:15.236Z,40
2019-03-22T08:04:15.239Z,45
2019-03-22T08:05:15.000Z,40
2019-03-22T08:06:15.041Z,40
2019-03-22T08:07:15.834Z,40
2019-03-22T08:08:15.329Z,40
2019-03-22T08:09:15.104Z,35
2019-03-22T08:10:15.630Z,35
2019-03-22T08:11:15.690Z,30
2019-03-22T08:12:15.401Z,35
2019-03-22T08:13:15.434Z,40
2019-03-22T08:14:16.513Z,40
2019-03-22T08:15:17.683Z,40
2019-03-22T08:16:15.274Z,40
2019-03-22T08:17:15.313Z,40
2019-03-22T08:18:15.272Z,45
2019-03-22T08:19:15.550Z,45
2019-03-22T08:20:16.138Z,45
2019-03-22T08:21:15.605Z,45
2019-03-22T08:22:15.877Z,45
2019-03-22T08:23:15.666Z,40
2019-03-22T08:24:15.366Z,40
2019-03-22T08:25:16.271Z,40
2019-03-22T08:26:15.464Z,40
2019-03-22T08:27:15.498Z,40
2019-03-22T08:28:15.796Z,40
2019-03-22T08:29:15.776Z,40
2019-03-22T08:30:15.900Z,40
2019-03-22T08:31:16.000Z,40
2019-03-22T08:32:15.522Z,40
2019-03-22T08:33:15.833Z,40
2019-03-22T08:34:15.610Z,40
2019-03-22T08:35:16.220Z,40
2019-03-22T08:36:17.497Z,40
2019-03-22T08:37:15.679Z,40
2019-03-22T08:38:17.486Z,40
2019-03-22T08:39:15.676Z,40
2019-03-22T08:40:16.222Z,40
2019-03-22T08:41:15.700Z,40
2019-03-22T08:42:15.770Z,40
2019-03-22T08:43:16.076Z,40
2019-03-22T08:44:16.329Z,40
2019-03-22T08:45:18.228Z,40
2019-03-22T08:46:16.461Z,40
2019-03-22T08:47:15.904Z,40
2019-03-22T08:48:15.603Z,40
2019-03-22T08:49:18.832Z,40
2019-03-22T08:50:16.709Z,40
2019-03-22T08:51:15.982Z,40
2019-03-22T08:52:16.757Z,40
2019-03-22T08:53:16.236Z,40
2019-03-22T08:54:15.716Z,40
2019-03-22T08:55:16.099Z,40
2019-03-22T08:56:16.312Z,40
2019-03-22T08:57:16.068Z,40
2019-03-22T08:58:18.385Z,40
2019-03-22T08:59:18.143Z,40
2019-03-22T09:00:16.726Z,40
2019-03-22T09:01:16.937Z,40
2019-03-22T09:02:17.749Z,40
2019-03-22T09:03:16.179Z,40
2019-03-22T09:04:16.465Z,40
2019-03-22T09:05:16.771Z,40
2019-03-22T09:06:17.212Z,40
2019-03-22T09:07:16.582Z,40
2019-03-22T09:08:18.683Z,40
2019-03-22T09:09:16.836Z,40
2019-03-22T09:10:16.856Z,40
2019-03-22T09:11:18.231Z,40
2019-03-22T09:12:16.831Z,40
2019-03-22T09:13:16.373Z,40
2019-03-22T09:14:16.217Z,40
2019-03-22T09:15:16.943Z,40
2019-03-22T09:16:16.710Z,40
2019-03-22T09:17:17.181Z,40
2019-03-22T09:18:18.154Z,40
2019-03-22T09:19:17.220Z,40
2019-03-22T09:20:16.557Z,40
2019-03-22T09:21:16.309Z,40
2019-03-22T09:22:16.635Z,40
2019-03-22T09:23:17.358Z,40
2019-03-22T09:24:18.936Z,40
2019-03-22T09:25:16.911Z,40
2019-03-22T09:26:19.901Z,40
2019-03-22T09:27:16.392Z,40
2019-03-22T09:28:19.753Z,40
2019-03-22T09:29:17.204Z,40
2019-03-22T09:30:16.761Z,40
2019-03-22T09:31:20.278Z,40
2019-03-22T09:32:16.965Z,40
2019-03-22T09:33:18.126Z,40
2019-03-22T09:34:17.327Z,40
2019-03-22T09:35:17.045Z,40
2019-03-22T09:36:16.923Z,40
2019-03-22T09:37:18.506Z,40
2019-03-22T09:38:22.503Z,40
2019-03-22T09:39:17.487Z,40
2019-03-22T09:40:17.644Z,40
2019-03-22T09:41:16.707Z,40
2019-03-22T09:42:17.012Z,40
2019-03-22T09:43:17.837Z,40
2019-03-22T09:44:17.603Z,40
2019-03-22T09:45:19.172Z,40
2019-03-22T09:46:17.596Z,40
2019-03-22T09:47:18.793Z,40
2019-03-22T09:48:17.263Z,40
2019-03-22T09:49:17.935Z,40
2019-03-22T09:50:17.405Z,40
2019-03-22T09:51:17.702Z,40
2019-03-22T09:52:17.160Z,40
2019-03-22T09:53:17.168Z,40
2019-03-22T09:54:17.183Z,40
2019-03-22T09:55:23.588Z,40
2019-03-22T09:56:17.528Z,40
2019-03-22T09:57:17.851Z,40
2019-03-22T09:58:17.531Z,40
2019-03-22T09:59:17.342Z,40
2019-03-22T10:00:17.811Z,40
2019-03-22T10:01:29.751Z,40
2019-03-22T10:02:17.705Z,40
2019-03-22T10:03:17.386Z,40
2019-03-22T10:04:17.838Z,40
2019-03-22T10:05:17.152Z,40
2019-03-22T10:06:17.690Z,40
2019-03-22T10:07:17.817Z,40
2019-03-22T10:08:17.923Z,40
2019-03-22T10:09:17.830Z,40
2019-03-22T10:10:17.601Z,40
2019-03-22T10:11:17.284Z,40
2019-03-22T10:12:17.915Z,40
2019-03-22T10:13:17.972Z,40
2019-03-22T10:14:17.663Z,40
2019-03-22T10:15:17.725Z,40
2019-03-22T10:16:17.835Z,40
2019-03-22T10:17:17.613Z,40
2019-03-22T10:18:17.683Z,40
2019-03-22T10:19:17.997Z,40
2019-03-22T10:20:17.961Z,40
2019-03-22T10:21:30.450Z,40
2019-03-22T10:22:17.861Z,40
2019-03-22T10:23:18.424Z,40
2019-03-22T10:24:18.289Z,35
2019-03-22T10:25:18.431Z,35
2019-03-22T10:26:17.935Z,35
2019-03-22T10:27:18.126Z,35
2019-03-22T10:28:17.942Z,35
2019-03-22T10:29:17.889Z,35
2019-03-22T10:30:17.613Z,35
2019-03-22T10:31:17.945Z,35
2019-03-22T10:32:18.150Z,35
2019-03-22T10:33:31.337Z,35
2019-03-22T10:34:18.840Z,35
2019-03-22T10:35:31.343Z,35
2019-03-22T10:36:18.289Z,35
2019-03-22T10:37:18.321Z,35
2019-03-22T10:38:38.068Z,35
2019-03-22T10:39:18.192Z,35
2019-03-22T10:40:18.777Z,35
2019-03-22T10:41:18.754Z,35
2019-03-22T10:42:18.740Z,35
2019-03-22T10:43:18.464Z,35
2019-03-22T10:44:18.201Z,35
2019-03-22T10:45:18.618Z,35
2019-03-22T10:46:18.072Z,35
2019-03-22T10:47:20.299Z,35
2019-03-22T10:48:18.698Z,35
2019-03-22T10:49:18.310Z,35
2019-03-22T10:50:18.926Z,35
2019-03-22T10:51:21.387Z,35
2019-03-22T10:52:18.792Z,35
2019-03-22T10:53:18.582Z,35
2019-03-22T10:54:18.742Z,35
2019-03-22T10:55:40.202Z,35
2019-03-22T10:56:18.190Z,35
2019-03-22T10:57:18.630Z,35
2019-03-22T10:58:29.797Z,35
2019-03-22T10:59:18.412Z,35
2019-03-22T11:00:18.726Z,35
2019-03-22T11:01:18.703Z,35
2019-03-22T11:02:18.727Z,35
2019-03-22T11:03:18.485Z,35
2019-03-22T11:04:18.249Z,35
2019-03-22T11:05:18.556Z,35
2019-03-22T11:06:28.936Z,35
2019-03-22T11:07:18.876Z,35
2019-03-22T11:08:19.105Z,35
2019-03-22T11:09:18.614Z,35
2019-03-22T11:10:22.121Z,35
2019-03-22T11:11:18.903Z,35
2019-03-22T11:12:21.227Z,35
2019-03-22T11:13:18.686Z,35
2019-03-22T11:14:18.967Z,35
2019-03-22T11:15:18.467Z,35
2019-03-22T11:16:18.783Z,35
2019-03-22T11:17:19.028Z,35
2019-03-22T11:18:19.059Z,35
2019-03-22T11:19:19.345Z,35
2019-03-22T11:20:19.095Z,35
2019-03-22T11:21:19.113Z,40
2019-03-22T11:22:19.132Z,40
2019-03-22T11:23:19.415Z,40
2019-03-22T11:24:19.436Z,40
2019-03-22T11:25:19.186Z,40
2019-03-22T11:26:18.949Z,40
2019-03-22T11:27:22.058Z,40
2019-03-22T11:28:20.676Z,40
2019-03-22T11:29:19.270Z,40
2019-03-22T11:30:19.290Z,40
2019-03-22T11:31:27.383Z,40
2019-03-22T11:32:22.523Z,40
2019-03-22T11:33:19.383Z,40
2019-03-22T11:34:19.890Z,40
2019-03-22T11:35:19.395Z,40
2019-03-22T11:36:19.683Z,40
2019-03-22T11:37:19.166Z,40
2019-03-22T11:38:19.724Z,40
2019-03-22T11:39:25.009Z,40
2019-03-22T11:40:19.233Z,40
2019-03-22T11:41:19.509Z,40
2019-03-22T11:42:19.531Z,40
2019-03-22T11:43:19.818Z,40
2019-03-22T11:44:19.051Z,40
2019-03-22T11:45:19.604Z,40
2019-03-22T11:46:19.624Z,40
2019-03-22T11:47:19.891Z,40
2019-03-22T11:48:19.913Z,40
2019-03-22T11:49:19.677Z,40
2019-03-22T11:50:19.452Z,40
2019-03-22T11:51:19.713Z,40
2019-03-22T11:52:19.884Z,40
2019-03-22T11:53:19.765Z,40
2019-03-22T11:54:19.772Z,40
2019-03-22T11:55:19.544Z,45
2019-03-22T11:56:19.291Z,45
2019-03-22T11:57:19.601Z,45
2019-03-22T11:58:19.593Z,45
2019-03-22T11:59:19.611Z,45
2019-03-22T12:00:19.636Z,45
2019-03-22T12:01:29.694Z,45
2019-03-22T12:02:29.298Z,45
2019-03-22T12:03:19.984Z,45
2019-03-22T12:04:21.155Z,45
2019-03-22T12:05:19.742Z,45
2019-03-22T12:06:20.024Z,45
2019-03-22T12:07:21.738Z,45
2019-03-22T12:08:20.060Z,45
2019-03-22T12:09:19.825Z,45
2019-03-22T12:10:20.376Z,45
2019-03-22T12:11:20.391Z,45
2019-03-22T12:12:19.883Z,45
2019-03-22T12:13:19.636Z,45
2019-03-22T12:14:20.184Z,45
2019-03-22T12:15:20.211Z,45
2019-03-22T12:16:20.223Z,45
2019-03-22T12:17:20.244Z,45
2019-03-22T12:18:20.549Z,45
2019-03-22T12:19:20.021Z,45
2019-03-22T12:20:20.564Z,45
2019-03-22T12:21:20.333Z,45
2019-03-22T12:22:20.635Z,45
2019-03-22T12:23:20.634Z,45
2019-03-22T12:24:20.967Z,45
2019-03-22T12:25:20.447Z,45
2019-03-22T12:26:20.434Z,50
2019-03-22T12:27:20.454Z,50
2019-03-22T12:28:19.968Z,50
2019-03-22T12:29:20.232Z,50
2019-03-22T12:30:20.253Z,50
2019-03-22T12:31:21.728Z,50
2019-03-22T12:32:20.560Z,50
2019-03-22T12:33:20.573Z,50
2019-03-22T12:34:20.589Z,50
2019-03-22T12:35:20.349Z,50
2019-03-22T12:36:20.381Z,50
2019-03-22T12:37:20.404Z,50
2019-03-22T12:38:20.198Z,50
2019-03-22T12:39:20.515Z,50
2019-03-22T12:40:20.455Z,50
2019-03-22T12:41:20.779Z,50
2019-03-22T12:42:20.769Z,50
2019-03-22T12:43:21.313Z,50
2019-03-22T12:44:20.538Z,50
2019-03-22T12:45:20.822Z,50
2019-03-22T12:46:20.841Z,50
2019-03-22T12:47:20.882Z,50
2019-03-22T12:48:20.890Z,50
2019-03-22T12:49:21.444Z,50
2019-03-22T12:50:20.396Z,50
2019-03-22T12:51:21.229Z,50
2019-03-22T12:52:21.224Z,50
2019-03-22T12:53:20.781Z,50
2019-03-22T12:54:21.277Z,55
2019-03-22T12:55:20.509Z,55
2019-03-22T12:56:21.049Z,55
2019-03-22T12:57:21.072Z,55
2019-03-22T12:58:21.408Z,50
2019-03-22T12:59:21.119Z,50
2019-03-22T13:00:21.132Z,50
2019-03-22T13:01:21.154Z,50
2019-03-22T13:02:20.912Z,55
2019-03-22T13:03:20.981Z,55
2019-03-22T13:04:20.704Z,55
2019-03-22T13:05:21.237Z,55
2019-03-22T13:06:21.516Z,55
2019-03-22T13:07:21.020Z,55
2019-03-22T13:08:21.305Z,55
2019-03-22T13:09:21.332Z,55
2019-03-22T13:10:21.080Z,55
2019-03-22T13:11:21.359Z,55
2019-03-22T13:12:21.651Z,55
2019-03-22T13:13:21.734Z,55
2019-03-22T13:14:20.955Z,55
2019-03-22T13:15:21.442Z,55
2019-03-22T13:16:20.939Z,55
2019-03-22T13:17:21.757Z,55
2019-03-22T13:18:21.824Z,55
2019-03-22T13:19:21.529Z,55
2019-03-22T13:20:21.311Z,55
2019-03-22T13:21:21.044Z,55
2019-03-22T13:22:21.600Z,55
2019-03-22T13:23:21.139Z,55
2019-03-22T13:24:21.661Z,55
2019-03-22T13:25:23.746Z,55
2019-03-22T13:26:21.673Z,55
2019-03-22T13:27:21.461Z,55
2019-03-22T13:28:21.772Z,55
2019-03-22T13:29:21.477Z,60
2019-03-22T13:30:22.283Z,60
2019-03-22T13:31:21.789Z,60
2019-03-22T13:32:21.810Z,60
2019-03-22T13:33:21.869Z,60
2019-03-22T13:34:21.585Z,60
2019-03-22T13:35:22.132Z,60
2019-03-22T13:36:23.551Z,60
2019-03-22T13:37:21.763Z,60
2019-03-22T13:38:22.254Z,60
2019-03-22T13:39:22.481Z,60
2019-03-22T13:40:21.707Z,60
2019-03-22T13:41:21.741Z,65
2019-03-22T13:42:22.274Z,65
2019-03-22T13:43:21.775Z,65
2019-03-22T13:44:22.057Z,65
2019-03-22T13:45:22.083Z,65
2019-03-22T13:46:21.842Z,65
2019-03-22T13:47:21.904Z,65
2019-03-22T13:48:21.992Z,65
2019-03-22T13:49:22.490Z,65
2019-03-22T13:50:21.925Z,65
2019-03-22T13:51:22.343Z,65
2019-03-22T13:52:23.496Z,70
2019-03-22T13:53:22.310Z,70
2019-03-22T13:54:22.104Z,70
2019-03-22T13:55:22.037Z,70
2019-03-22T13:56:22.581Z,70
2019-03-22T13:57:21.817Z,70
2019-03-22T13:58:22.489Z,65
2019-03-22T13:59:22.152Z,65
2019-03-22T14:00:22.681Z,65
2019-03-22T14:01:22.053Z,65
2019-03-22T14:02:23.110Z,70
2019-03-22T14:03:22.207Z,70
2019-03-22T14:04:22.246Z,70
2019-03-22T14:05:22.518Z,70
2019-03-22T14:06:22.544Z,70
2019-03-22T14:07:22.556Z,70
2019-03-22T14:08:22.057Z,70
2019-03-22T14:09:22.360Z,70
2019-03-22T14:10:23.148Z,75
2019-03-22T14:11:22.379Z,75
2019-03-22T14:12:22.687Z,75
2019-03-22T14:13:22.432Z,75
2019-03-22T14:14:22.979Z,75
2019-03-22T14:15:22.737Z,75
2019-03-22T14:16:22.755Z,75
2019-03-22T14:17:22.784Z,75
2019-03-22T14:18:22.802Z,65
2019-03-22T14:19:22.557Z,65
2019-03-22T14:20:22.579Z,60
2019-03-22T14:21:22.357Z,55
2019-03-22T14:22:22.368Z,55
2019-03-22T14:23:22.692Z,55
2019-03-22T14:24:22.665Z,55
2019-03-22T14:25:22.689Z,55
2019-03-22T14:26:22.713Z,55
2019-03-22T14:27:23.263Z,50
2019-03-22T14:28:22.497Z,50